EWG9724 EDDL-LOWG
Flight info
| Callsign | EWG9724 |
|---|---|
| Flight time | 1h 10m |
| Altitude | 35000 |
| Route | DODEN7Z DODEN Y853 BOMBI DCT ESATI/N0443F370 DCT BARSU DCT MOOCE DCT RUDNO DCT LAMSI DCT LEOBE LEOBE2M |
| Aircraft | A319/M-SDE3FGHIRWY/LB1 |
Departure
| Time | 2026-05-07 14:09 |
|---|---|
| Airport | Düsseldorf Airport (EDDL) |
Arrival
| Time | 2026-05-07 15:19 |
|---|---|
| Airport | Graz Airport (LOWG) |
| Time | Latitude | Longitude | Altitude | Speed | Heading |
|---|---|---|---|---|---|
| 2026-05-07 13:31 | 51.28043 | 6.76220 | 133 ft | 0 kts | 163° |
| 2026-05-07 13:58 | 51.28051 | 6.76217 | 133 ft | 4 kts | 158° |
| 2026-05-07 13:58 | 51.28073 | 6.76194 | 133 ft | 4 kts | 146° |
| 2026-05-07 13:58 | 51.28093 | 6.76179 | 133 ft | 4 kts | 171° |
| 2026-05-07 13:59 | 51.28118 | 6.76185 | 133 ft | 4 kts | 222° |
| 2026-05-07 13:59 | 51.28131 | 6.76210 | 133 ft | 0 kts | 236° |
| 2026-05-07 14:02 | 51.28131 | 6.76209 | 133 ft | 1 kts | 236° |
| 2026-05-07 14:03 | 51.28126 | 6.76198 | 133 ft | 2 kts | 236° |
| 2026-05-07 14:03 | 51.28117 | 6.76177 | 134 ft | 3 kts | 235° |
| 2026-05-07 14:03 | 51.28104 | 6.76148 | 134 ft | 4 kts | 234° |
| 2026-05-07 14:03 | 51.28088 | 6.76113 | 134 ft | 4 kts | 233° |
| 2026-05-07 14:04 | 51.28070 | 6.76071 | 134 ft | 4 kts | 249° |
| 2026-05-07 14:04 | 51.28085 | 6.76052 | 134 ft | 3 kts | 317° |
| 2026-05-07 14:04 | 51.28102 | 6.76018 | 134 ft | 6 kts | 301° |
| 2026-05-07 14:04 | 51.28086 | 6.75928 | 134 ft | 12 kts | 231° |
| 2026-05-07 14:05 | 51.28026 | 6.75804 | 131 ft | 16 kts | 233° |
| 2026-05-07 14:05 | 51.27959 | 6.75662 | 127 ft | 14 kts | 232° |
| 2026-05-07 14:05 | 51.27984 | 6.75534 | 127 ft | 15 kts | 336° |
| 2026-05-07 14:05 | 51.27991 | 6.75528 | 126 ft | 0 kts | 336° |
| 2026-05-07 14:07 | 51.27992 | 6.75528 | 126 ft | 0 kts | 336° |
| 2026-05-07 14:07 | 51.28021 | 6.75509 | 124 ft | 12 kts | 339° |
| 2026-05-07 14:07 | 51.28107 | 6.75517 | 125 ft | 13 kts | 35° |
| 2026-05-07 14:07 | 51.28130 | 6.75557 | 128 ft | 0 kts | 51° |
| 2026-05-07 14:08 | 51.28157 | 6.75609 | 127 ft | 33 kts | 51° |
| 2026-05-07 14:08 | 51.28470 | 6.76267 | 132 ft | 113 kts | 52° |
| 2026-05-07 14:09 | 51.29069 | 6.77510 | 299 ft | 155 kts | 51° |
| 2026-05-07 14:09 | 51.29702 | 6.78867 | 1140 ft | 151 kts | 50° |
| 2026-05-07 14:09 | 51.30359 | 6.80256 | 1858 ft | 165 kts | 50° |
| 2026-05-07 14:09 | 51.31102 | 6.81817 | 2391 ft | 188 kts | 51° |
| 2026-05-07 14:10 | 51.31945 | 6.83589 | 2927 ft | 210 kts | 51° |
| 2026-05-07 14:10 | 51.32874 | 6.85542 | 3456 ft | 234 kts | 51° |
| 2026-05-07 14:10 | 51.33902 | 6.87741 | 4171 ft | 254 kts | 53° |
| 2026-05-07 14:10 | 51.34899 | 6.90119 | 5192 ft | 262 kts | 62° |
| 2026-05-07 14:11 | 51.35270 | 6.93008 | 6242 ft | 272 kts | 92° |
| 2026-05-07 14:11 | 51.34993 | 6.96021 | 7310 ft | 276 kts | 99° |
| 2026-05-07 14:11 | 51.34672 | 6.99071 | 8339 ft | 281 kts | 99° |
| 2026-05-07 14:11 | 51.34348 | 7.02182 | 9343 ft | 286 kts | 99° |
| 2026-05-07 14:12 | 51.34022 | 7.05350 | 10296 ft | 293 kts | 99° |
| 2026-05-07 14:12 | 51.33682 | 7.08708 | 10727 ft | 317 kts | 99° |
| 2026-05-07 14:12 | 51.33313 | 7.12314 | 11143 ft | 339 kts | 101° |
| 2026-05-07 14:12 | 51.32616 | 7.15975 | 11870 ft | 349 kts | 113° |
| 2026-05-07 14:13 | 51.31435 | 7.19393 | 12707 ft | 354 kts | 126° |
| 2026-05-07 14:13 | 51.29819 | 7.22384 | 13563 ft | 359 kts | 136° |
| 2026-05-07 14:13 | 51.28029 | 7.25202 | 14324 ft | 364 kts | 136° |
| 2026-05-07 14:13 | 51.26216 | 7.28059 | 15099 ft | 368 kts | 136° |
| 2026-05-07 14:14 | 51.24385 | 7.30944 | 15871 ft | 372 kts | 136° |
| 2026-05-07 14:14 | 51.22540 | 7.33854 | 16648 ft | 375 kts | 136° |
| 2026-05-07 14:14 | 51.20671 | 7.36798 | 17419 ft | 379 kts | 136° |
| 2026-05-07 14:14 | 51.18788 | 7.39760 | 18180 ft | 383 kts | 136° |
| 2026-05-07 14:15 | 51.16885 | 7.42754 | 18860 ft | 386 kts | 136° |
| 2026-05-07 14:15 | 51.14963 | 7.45774 | 19526 ft | 390 kts | 137° |
| 2026-05-07 14:15 | 51.13011 | 7.48801 | 20193 ft | 393 kts | 137° |
| 2026-05-07 14:15 | 51.11033 | 7.51834 | 20861 ft | 396 kts | 137° |
| 2026-05-07 14:16 | 51.09031 | 7.54877 | 21521 ft | 400 kts | 137° |
| 2026-05-07 14:16 | 51.07007 | 7.57940 | 22160 ft | 404 kts | 137° |
| 2026-05-07 14:16 | 51.04966 | 7.61034 | 22782 ft | 407 kts | 137° |
| 2026-05-07 14:16 | 51.02903 | 7.64166 | 23376 ft | 411 kts | 137° |
| 2026-05-07 14:17 | 51.00828 | 7.67318 | 23906 ft | 415 kts | 137° |
| 2026-05-07 14:17 | 50.98710 | 7.70531 | 24404 ft | 418 kts | 137° |
| 2026-05-07 14:17 | 50.96528 | 7.73616 | 24888 ft | 421 kts | 143° |
| 2026-05-07 14:17 | 50.94126 | 7.76172 | 25350 ft | 423 kts | 149° |
| 2026-05-07 14:18 | 50.91621 | 7.78644 | 25827 ft | 426 kts | 149° |
| 2026-05-07 14:18 | 50.89090 | 7.81125 | 26299 ft | 429 kts | 149° |
| 2026-05-07 14:18 | 50.86542 | 7.83620 | 26768 ft | 432 kts | 149° |
| 2026-05-07 14:18 | 50.83977 | 7.86129 | 27225 ft | 435 kts | 149° |
| 2026-05-07 14:19 | 50.81390 | 7.88662 | 27692 ft | 438 kts | 149° |
| 2026-05-07 14:19 | 50.78789 | 7.91211 | 28159 ft | 441 kts | 149° |
| 2026-05-07 14:19 | 50.76171 | 7.93773 | 28610 ft | 444 kts | 149° |
| 2026-05-07 14:19 | 50.73539 | 7.96345 | 29041 ft | 447 kts | 149° |
| 2026-05-07 14:20 | 50.70880 | 7.98943 | 29466 ft | 450 kts | 149° |
| 2026-05-07 14:20 | 50.68214 | 8.01546 | 29883 ft | 453 kts | 149° |
| 2026-05-07 14:20 | 50.65527 | 8.04163 | 30253 ft | 455 kts | 149° |
| 2026-05-07 14:20 | 50.62819 | 8.06796 | 30595 ft | 458 kts | 149° |
| 2026-05-07 14:21 | 50.60136 | 8.09526 | 30922 ft | 461 kts | 144° |
| 2026-05-07 14:21 | 50.57633 | 8.12721 | 31265 ft | 463 kts | 140° |
| 2026-05-07 14:21 | 50.55158 | 8.15983 | 31733 ft | 462 kts | 140° |
| 2026-05-07 14:21 | 50.52695 | 8.19221 | 32187 ft | 462 kts | 140° |
| 2026-05-07 14:22 | 50.50259 | 8.22415 | 32642 ft | 462 kts | 141° |
| 2026-05-07 14:22 | 50.47795 | 8.25639 | 33089 ft | 461 kts | 141° |
| 2026-05-07 14:22 | 50.45326 | 8.28860 | 33538 ft | 461 kts | 141° |
| 2026-05-07 14:22 | 50.42857 | 8.32073 | 33995 ft | 461 kts | 141° |
| 2026-05-07 14:23 | 50.40389 | 8.35279 | 34379 ft | 460 kts | 141° |
| 2026-05-07 14:23 | 50.37893 | 8.38519 | 34752 ft | 460 kts | 141° |
| 2026-05-07 14:23 | 50.35431 | 8.41715 | 34994 ft | 461 kts | 141° |
| 2026-05-07 14:24 | 50.30544 | 8.48061 | 35054 ft | 457 kts | 141° |
| 2026-05-07 14:24 | 50.25654 | 8.54389 | 35056 ft | 457 kts | 141° |
| 2026-05-07 14:25 | 50.20757 | 8.60702 | 35057 ft | 456 kts | 141° |
| 2026-05-07 14:25 | 50.15846 | 8.67008 | 35055 ft | 456 kts | 141° |
| 2026-05-07 14:26 | 50.10992 | 8.73382 | 35056 ft | 457 kts | 135° |
| 2026-05-07 14:26 | 50.08952 | 8.77174 | 35050 ft | 458 kts | 124° |
| 2026-05-07 14:26 | 50.07399 | 8.81503 | 35049 ft | 458 kts | 114° |
| 2026-05-07 14:26 | 50.06382 | 8.86201 | 35047 ft | 459 kts | 103° |
| 2026-05-07 14:27 | 50.05923 | 8.91112 | 35046 ft | 459 kts | 92° |
| 2026-05-07 14:27 | 50.06041 | 9.01027 | 35041 ft | 459 kts | 88° |
| 2026-05-07 14:28 | 50.06196 | 9.10977 | 35014 ft | 461 kts | 89° |
| 2026-05-07 14:28 | 50.06070 | 9.20980 | 35016 ft | 464 kts | 98° |
| 2026-05-07 14:29 | 50.04965 | 9.30895 | 35012 ft | 466 kts | 100° |
| 2026-05-07 14:29 | 50.03827 | 9.40860 | 35021 ft | 467 kts | 100° |
| 2026-05-07 14:30 | 50.02688 | 9.50824 | 35024 ft | 468 kts | 100° |
| 2026-05-07 14:30 | 50.01530 | 9.60799 | 35025 ft | 469 kts | 101° |
| 2026-05-07 14:31 | 50.00363 | 9.70769 | 35028 ft | 469 kts | 101° |
| 2026-05-07 14:31 | 49.99190 | 9.80762 | 35028 ft | 469 kts | 101° |
| 2026-05-07 14:32 | 49.98020 | 9.90675 | 35031 ft | 470 kts | 101° |
| 2026-05-07 14:32 | 49.96822 | 10.00709 | 35033 ft | 470 kts | 101° |
| 2026-05-07 14:33 | 49.95624 | 10.10621 | 35031 ft | 470 kts | 101° |
| 2026-05-07 14:33 | 49.94407 | 10.20594 | 35034 ft | 470 kts | 101° |
| 2026-05-07 14:34 | 49.93176 | 10.30664 | 35041 ft | 478 kts | 101° |
| 2026-05-07 14:34 | 49.91589 | 10.40680 | 35036 ft | 483 kts | 112° |
| 2026-05-07 14:35 | 49.88785 | 10.50149 | 35037 ft | 483 kts | 116° |
| 2026-05-07 14:35 | 49.85940 | 10.59599 | 35032 ft | 484 kts | 116° |
| 2026-05-07 14:36 | 49.83090 | 10.69061 | 35036 ft | 484 kts | 116° |
| 2026-05-07 14:36 | 49.80218 | 10.78502 | 35035 ft | 484 kts | 116° |
| 2026-05-07 14:37 | 49.77332 | 10.87928 | 35039 ft | 485 kts | 116° |
| 2026-05-07 14:37 | 49.73002 | 11.02063 | 35044 ft | 485 kts | 116° |
| 2026-05-07 14:38 | 49.70128 | 11.11398 | 35044 ft | 469 kts | 116° |
| 2026-05-07 14:38 | 49.68755 | 11.15858 | 35048 ft | 451 kts | 116° |
| 2026-05-07 14:38 | 49.67870 | 11.18718 | 35047 ft | 442 kts | 117° |
| 2026-05-07 14:39 | 49.66077 | 11.24496 | 35048 ft | 453 kts | 117° |
| 2026-05-07 14:39 | 49.65166 | 11.27427 | 35052 ft | 460 kts | 117° |
| 2026-05-07 14:39 | 49.62350 | 11.36461 | 35045 ft | 470 kts | 117° |
| 2026-05-07 14:40 | 49.59503 | 11.45570 | 35044 ft | 472 kts | 117° |
| 2026-05-07 14:40 | 49.56677 | 11.54704 | 35025 ft | 472 kts | 113° |
| 2026-05-07 14:41 | 49.54477 | 11.64249 | 35019 ft | 473 kts | 110° |
| 2026-05-07 14:41 | 49.52297 | 11.73806 | 35021 ft | 473 kts | 111° |
| 2026-05-07 14:42 | 49.50109 | 11.83360 | 35020 ft | 473 kts | 111° |
| 2026-05-07 14:42 | 49.47922 | 11.92885 | 35019 ft | 473 kts | 111° |
| 2026-05-07 14:43 | 49.45721 | 12.02405 | 35020 ft | 473 kts | 111° |
| 2026-05-07 14:43 | 49.43501 | 12.11937 | 35024 ft | 473 kts | 111° |
| 2026-05-07 14:44 | 49.41284 | 12.21432 | 35020 ft | 473 kts | 111° |
| 2026-05-07 14:44 | 49.38326 | 12.30313 | 35011 ft | 466 kts | 133° |
| 2026-05-07 14:45 | 49.33669 | 12.37193 | 35018 ft | 464 kts | 139° |
| 2026-05-07 14:45 | 49.28928 | 12.43924 | 35016 ft | 464 kts | 140° |
| 2026-05-07 14:46 | 49.24183 | 12.50631 | 35013 ft | 464 kts | 140° |
| 2026-05-07 14:46 | 49.19433 | 12.57327 | 35012 ft | 465 kts | 140° |
| 2026-05-07 14:47 | 49.14701 | 12.63992 | 35011 ft | 465 kts | 140° |
| 2026-05-07 14:47 | 49.09929 | 12.70682 | 35012 ft | 466 kts | 140° |
| 2026-05-07 14:48 | 49.05155 | 12.77368 | 35016 ft | 466 kts | 140° |
| 2026-05-07 14:48 | 49.00370 | 12.84061 | 35015 ft | 466 kts | 140° |
| 2026-05-07 14:49 | 48.95577 | 12.90737 | 35015 ft | 467 kts | 140° |
| 2026-05-07 14:49 | 48.90788 | 12.97391 | 35019 ft | 467 kts | 141° |
| 2026-05-07 14:50 | 48.85981 | 13.04055 | 35023 ft | 467 kts | 141° |
| 2026-05-07 14:50 | 48.81171 | 13.10698 | 35026 ft | 467 kts | 141° |
| 2026-05-07 14:51 | 48.76367 | 13.17317 | 35025 ft | 467 kts | 141° |
| 2026-05-07 14:51 | 48.71558 | 13.23914 | 35018 ft | 466 kts | 141° |
| 2026-05-07 14:52 | 48.66743 | 13.30499 | 35018 ft | 466 kts | 141° |
| 2026-05-07 14:52 | 48.61950 | 13.37076 | 35019 ft | 465 kts | 141° |
| 2026-05-07 14:53 | 48.57172 | 13.43671 | 35017 ft | 465 kts | 141° |
| 2026-05-07 14:53 | 48.52375 | 13.50192 | 35011 ft | 464 kts | 142° |
| 2026-05-07 14:54 | 48.47566 | 13.56684 | 35003 ft | 463 kts | 142° |
| 2026-05-07 14:54 | 48.42794 | 13.63121 | 35001 ft | 463 kts | 142° |
| 2026-05-07 14:55 | 48.37959 | 13.69641 | 35001 ft | 464 kts | 142° |
| 2026-05-07 14:55 | 48.33180 | 13.76084 | 35003 ft | 464 kts | 142° |
| 2026-05-07 14:56 | 48.28369 | 13.82535 | 34999 ft | 463 kts | 142° |
| 2026-05-07 14:56 | 48.23546 | 13.88980 | 34997 ft | 464 kts | 142° |
| 2026-05-07 14:57 | 48.18721 | 13.95411 | 34996 ft | 464 kts | 142° |
| 2026-05-07 14:57 | 48.13896 | 14.01829 | 35001 ft | 463 kts | 142° |
| 2026-05-07 14:58 | 48.09076 | 14.08217 | 35000 ft | 463 kts | 142° |
| 2026-05-07 14:58 | 48.04254 | 14.14588 | 35005 ft | 463 kts | 143° |
| 2026-05-07 14:59 | 47.99449 | 14.20928 | 34999 ft | 463 kts | 143° |
| 2026-05-07 14:59 | 47.94617 | 14.27284 | 35001 ft | 463 kts | 143° |
| 2026-05-07 15:00 | 47.89794 | 14.33629 | 35000 ft | 462 kts | 143° |
| 2026-05-07 15:00 | 47.84958 | 14.39970 | 35002 ft | 462 kts | 143° |
| 2026-05-07 15:01 | 47.80120 | 14.46278 | 34992 ft | 461 kts | 143° |
| 2026-05-07 15:01 | 47.75293 | 14.52554 | 34998 ft | 461 kts | 143° |
| 2026-05-07 15:02 | 47.70445 | 14.58857 | 34000 ft | 468 kts | 144° |
| 2026-05-07 15:02 | 47.67994 | 14.62043 | 33188 ft | 465 kts | 144° |
| 2026-05-07 15:02 | 47.65567 | 14.65197 | 32282 ft | 462 kts | 144° |
| 2026-05-07 15:03 | 47.63154 | 14.68327 | 31330 ft | 459 kts | 144° |
| 2026-05-07 15:03 | 47.60754 | 14.71431 | 30123 ft | 457 kts | 144° |
| 2026-05-07 15:03 | 47.58362 | 14.74512 | 28644 ft | 456 kts | 143° |
| 2026-05-07 15:03 | 47.55961 | 14.77593 | 26980 ft | 458 kts | 143° |
| 2026-05-07 15:04 | 47.53546 | 14.80692 | 25070 ft | 461 kts | 143° |
| 2026-05-07 15:04 | 47.51132 | 14.83791 | 23813 ft | 453 kts | 142° |
| 2026-05-07 15:04 | 47.48829 | 14.86763 | 23219 ft | 427 kts | 142° |
| 2026-05-07 15:04 | 47.46625 | 14.89612 | 22234 ft | 414 kts | 142° |
| 2026-05-07 15:05 | 47.44475 | 14.92375 | 21155 ft | 407 kts | 142° |
| 2026-05-07 15:05 | 47.42342 | 14.95101 | 20123 ft | 401 kts | 142° |
| 2026-05-07 15:05 | 47.40272 | 14.97738 | 19155 ft | 396 kts | 142° |
| 2026-05-07 15:05 | 47.38198 | 15.00380 | 18186 ft | 393 kts | 142° |
| 2026-05-07 15:06 | 47.36107 | 15.02970 | 17298 ft | 392 kts | 146° |
| 2026-05-07 15:06 | 47.33850 | 15.05328 | 16537 ft | 392 kts | 147° |
| 2026-05-07 15:06 | 47.31677 | 15.07580 | 16135 ft | 384 kts | 147° |
| 2026-05-07 15:06 | 47.29535 | 15.09808 | 15970 ft | 369 kts | 147° |
| 2026-05-07 15:07 | 47.27455 | 15.11975 | 15833 ft | 353 kts | 147° |
| 2026-05-07 15:07 | 47.25545 | 15.13972 | 15700 ft | 329 kts | 147° |
| 2026-05-07 15:07 | 47.23707 | 15.15893 | 15387 ft | 315 kts | 147° |
| 2026-05-07 15:07 | 47.21912 | 15.17761 | 14572 ft | 319 kts | 147° |
| 2026-05-07 15:08 | 47.20103 | 15.19632 | 13751 ft | 325 kts | 147° |
| 2026-05-07 15:08 | 47.18239 | 15.21552 | 12811 ft | 329 kts | 147° |
| 2026-05-07 15:08 | 47.16355 | 15.23492 | 11903 ft | 330 kts | 147° |
| 2026-05-07 15:08 | 47.14487 | 15.25421 | 11167 ft | 325 kts | 147° |
| 2026-05-07 15:09 | 47.12641 | 15.27118 | 10960 ft | 301 kts | 156° |
| 2026-05-07 15:09 | 47.10727 | 15.28225 | 10833 ft | 292 kts | 167° |
| 2026-05-07 15:09 | 47.08766 | 15.28836 | 10694 ft | 285 kts | 172° |
| 2026-05-07 15:09 | 47.06883 | 15.29352 | 10578 ft | 266 kts | 172° |
| 2026-05-07 15:10 | 47.05125 | 15.29842 | 10471 ft | 248 kts | 172° |
| 2026-05-07 15:10 | 47.03488 | 15.30302 | 10359 ft | 233 kts | 172° |
| 2026-05-07 15:10 | 47.01907 | 15.30741 | 10288 ft | 230 kts | 172° |
| 2026-05-07 15:10 | 47.00336 | 15.31172 | 10230 ft | 229 kts | 172° |
| 2026-05-07 15:11 | 46.98768 | 15.31601 | 10155 ft | 230 kts | 172° |
| 2026-05-07 15:11 | 46.97196 | 15.32034 | 10048 ft | 229 kts | 172° |
| 2026-05-07 15:11 | 46.95631 | 15.32467 | 9850 ft | 231 kts | 172° |
| 2026-05-07 15:11 | 46.94037 | 15.32906 | 9450 ft | 234 kts | 172° |
| 2026-05-07 15:12 | 46.92431 | 15.33346 | 9100 ft | 235 kts | 172° |
| 2026-05-07 15:12 | 46.90821 | 15.33787 | 8765 ft | 236 kts | 171° |
| 2026-05-07 15:12 | 46.89217 | 15.34288 | 8386 ft | 238 kts | 169° |
| 2026-05-07 15:12 | 46.87586 | 15.34838 | 8003 ft | 240 kts | 169° |
| 2026-05-07 15:13 | 46.85963 | 15.35402 | 7621 ft | 237 kts | 169° |
| 2026-05-07 15:13 | 46.84378 | 15.35952 | 7259 ft | 232 kts | 169° |
| 2026-05-07 15:13 | 46.82820 | 15.36488 | 6907 ft | 227 kts | 169° |
| 2026-05-07 15:13 | 46.81308 | 15.37074 | 6543 ft | 224 kts | 160° |
| 2026-05-07 15:14 | 46.80080 | 15.38434 | 6197 ft | 225 kts | 130° |
| 2026-05-07 15:14 | 46.79461 | 15.40503 | 5822 ft | 224 kts | 100° |
| 2026-05-07 15:14 | 46.79600 | 15.42697 | 5435 ft | 215 kts | 71° |
| 2026-05-07 15:14 | 46.80297 | 15.44569 | 5033 ft | 206 kts | 60° |
| 2026-05-07 15:15 | 46.81106 | 15.46234 | 4639 ft | 198 kts | 47° |
| 2026-05-07 15:15 | 46.82216 | 15.47414 | 4180 ft | 197 kts | 26° |
| 2026-05-07 15:15 | 46.83492 | 15.47957 | 3914 ft | 184 kts | 6° |
| 2026-05-07 15:15 | 46.84697 | 15.47914 | 3694 ft | 165 kts | 350° |
| 2026-05-07 15:16 | 46.85777 | 15.47618 | 3470 ft | 152 kts | 348° |
| 2026-05-07 15:16 | 46.86792 | 15.47343 | 3295 ft | 145 kts | 349° |
| 2026-05-07 15:16 | 46.87774 | 15.47075 | 3101 ft | 142 kts | 348° |
| 2026-05-07 15:16 | 46.88752 | 15.46807 | 2918 ft | 144 kts | 348° |
| 2026-05-07 15:17 | 46.89726 | 15.46540 | 2735 ft | 142 kts | 348° |
| 2026-05-07 15:17 | 46.90700 | 15.46274 | 2531 ft | 141 kts | 351° |
| 2026-05-07 15:17 | 46.91669 | 15.46009 | 2329 ft | 141 kts | 351° |
| 2026-05-07 15:17 | 46.92623 | 15.45744 | 2151 ft | 139 kts | 351° |
| 2026-05-07 15:18 | 46.93573 | 15.45480 | 1963 ft | 142 kts | 352° |
| 2026-05-07 15:18 | 46.94536 | 15.45221 | 1708 ft | 140 kts | 352° |
| 2026-05-07 15:18 | 46.95498 | 15.44959 | 1543 ft | 141 kts | 352° |
| 2026-05-07 15:18 | 46.96478 | 15.44692 | 1354 ft | 145 kts | 352° |
| 2026-05-07 15:19 | 46.97471 | 15.44414 | 1202 ft | 145 kts | 351° |
| 2026-05-07 15:19 | 46.98435 | 15.44151 | 1101 ft | 129 kts | 351° |
| 2026-05-07 15:19 | 46.99114 | 15.43969 | 1104 ft | 66 kts | 348° |
| 2026-05-07 15:19 | 46.99416 | 15.43878 | 1110 ft | 41 kts | 348° |
| 2026-05-07 15:20 | 46.99690 | 15.43853 | 1114 ft | 39 kts | 10° |
| 2026-05-07 15:20 | 46.99849 | 15.43912 | 1117 ft | 30 kts | 15° |
| 2026-05-07 15:20 | 46.99898 | 15.43944 | 1115 ft | 0 kts | 39° |
| 2026-05-07 15:21 | 46.99900 | 15.43947 | 1116 ft | 2 kts | 39° |
| 2026-05-07 15:21 | 46.99922 | 15.43983 | 1115 ft | 7 kts | 58° |
| 2026-05-07 15:21 | 46.99936 | 15.44077 | 1111 ft | 10 kts | 82° |
| 2026-05-07 15:21 | 46.99913 | 15.44144 | 1114 ft | 7 kts | 144° |
| 2026-05-07 15:22 | 46.99862 | 15.44156 | 1113 ft | 9 kts | 168° |
| 2026-05-07 15:22 | 46.99814 | 15.44199 | 1116 ft | 9 kts | 114° |
| 2026-05-07 15:22 | 46.99820 | 15.44292 | 1108 ft | 5 kts | 78° |
| 2026-05-07 15:22 | 46.99821 | 15.44300 | 1109 ft | 0 kts | 78° |
| 2026-05-07 15:23 | 46.99821 | 15.44304 | 1109 ft | 1 kts | 87° |
| 2026-05-07 15:23 | 46.99805 | 15.44325 | 1109 ft | 5 kts | 159° |
| 2026-05-07 15:23 | 46.99762 | 15.44331 | 1115 ft | 6 kts | 170° |
| 2026-05-07 15:23 | 46.99750 | 15.44334 | 1108 ft | 0 kts | 170° |